sensor_id;sensor_type;location;lat;lon;timestamp;P1;durP1;ratioP1;P2;durP2;ratioP2
59109;SDS011;44895;47.438;18.978;2023-01-23T00:02:14;26.80;;;14.70;;
59109;SDS011;44895;47.438;18.978;2023-01-23T00:05:17;25.10;;;14.10;;
59109;SDS011;44895;47.438;18.978;2023-01-23T00:08:21;21.83;;;14.52;;
59109;SDS011;44895;47.438;18.978;2023-01-23T00:11:26;24.02;;;12.98;;
59109;SDS011;44895;47.438;18.978;2023-01-23T00:14:32;22.17;;;13.88;;
59109;SDS011;44895;47.438;18.978;2023-01-23T00:17:36;22.90;;;13.80;;
59109;SDS011;44895;47.438;18.978;2023-01-23T00:20:40;26.10;;;14.98;;
59109;SDS011;44895;47.438;18.978;2023-01-23T00:23:45;23.85;;;14.40;;
59109;SDS011;44895;47.438;18.978;2023-01-23T00:26:54;24.35;;;13.90;;
59109;SDS011;44895;47.438;18.978;2023-01-23T00:29:58;25.75;;;13.23;;
59109;SDS011;44895;47.438;18.978;2023-01-23T00:33:02;23.55;;;13.95;;
59109;SDS011;44895;47.438;18.978;2023-01-23T00:36:05;24.75;;;13.93;;
59109;SDS011;44895;47.438;18.978;2023-01-23T00:39:20;27.58;;;15.10;;
59109;SDS011;44895;47.438;18.978;2023-01-23T00:42:24;28.38;;;13.20;;
59109;SDS011;44895;47.438;18.978;2023-01-23T00:45:27;25.83;;;14.55;;
59109;SDS011;44895;47.438;18.978;2023-01-23T00:48:31;21.20;;;13.18;;
59109;SDS011;44895;47.438;18.978;2023-01-23T00:51:35;21.08;;;12.73;;
59109;SDS011;44895;47.438;18.978;2023-01-23T00:54:39;23.83;;;12.88;;
59109;SDS011;44895;47.438;18.978;2023-01-23T00:57:43;18.30;;;12.35;;
59109;SDS011;44895;47.438;18.978;2023-01-23T01:00:46;24.83;;;14.02;;
59109;SDS011;44895;47.438;18.978;2023-01-23T01:03:50;22.23;;;13.93;;
59109;SDS011;44895;47.438;18.978;2023-01-23T01:06:54;23.67;;;12.77;;
59109;SDS011;44895;47.438;18.978;2023-01-23T01:09:59;21.42;;;11.93;;
59109;SDS011;44895;47.438;18.978;2023-01-23T01:13:03;18.15;;;10.32;;
59109;SDS011;44895;47.438;18.978;2023-01-23T01:16:07;16.10;;;9.50;;
59109;SDS011;44895;47.438;18.978;2023-01-23T01:19:13;17.30;;;11.02;;
59109;SDS011;44895;47.438;18.978;2023-01-23T01:22:17;18.02;;;9.63;;
59109;SDS011;44895;47.438;18.978;2023-01-23T01:25:21;15.90;;;9.15;;
59109;SDS011;44895;47.438;18.978;2023-01-23T01:28:26;20.20;;;10.75;;
59109;SDS011;44895;47.438;18.978;2023-01-23T01:31:32;14.55;;;8.88;;
59109;SDS011;44895;47.438;18.978;2023-01-23T01:34:35;15.07;;;7.80;;
59109;SDS011;44895;47.438;18.978;2023-01-23T01:37:39;13.80;;;6.35;;
59109;SDS011;44895;47.438;18.978;2023-01-23T01:40:44;11.15;;;5.95;;
59109;SDS011;44895;47.438;18.978;2023-01-23T01:43:48;9.55;;;4.22;;
59109;SDS011;44895;47.438;18.978;2023-01-23T01:46:51;9.80;;;5.30;;
59109;SDS011;44895;47.438;18.978;2023-01-23T01:49:56;9.55;;;4.03;;
59109;SDS011;44895;47.438;18.978;2023-01-23T01:53:04;7.53;;;3.63;;
59109;SDS011;44895;47.438;18.978;2023-01-23T01:56:09;10.95;;;4.53;;
59109;SDS011;44895;47.438;18.978;2023-01-23T01:59:15;9.18;;;4.25;;
59109;SDS011;44895;47.438;18.978;2023-01-23T02:02:32;8.35;;;3.90;;
59109;SDS011;44895;47.438;18.978;2023-01-23T02:05:44;10.25;;;4.63;;
59109;SDS011;44895;47.438;18.978;2023-01-23T02:08:56;12.85;;;4.15;;
59109;SDS011;44895;47.438;18.978;2023-01-23T02:12:06;9.95;;;4.13;;
59109;SDS011;44895;47.438;18.978;2023-01-23T02:15:10;8.00;;;3.58;;
59109;SDS011;44895;47.438;18.978;2023-01-23T02:18:14;8.38;;;4.00;;
59109;SDS011;44895;47.438;18.978;2023-01-23T02:21:20;8.43;;;4.13;;
59109;SDS011;44895;47.438;18.978;2023-01-23T02:24:28;8.05;;;3.90;;
59109;SDS011;44895;47.438;18.978;2023-01-23T02:27:44;7.78;;;3.70;;
59109;SDS011;44895;47.438;18.978;2023-01-23T02:30:49;6.78;;;3.22;;
59109;SDS011;44895;47.438;18.978;2023-01-23T02:33:54;8.82;;;3.50;;
59109;SDS011;44895;47.438;18.978;2023-01-23T02:36:59;8.20;;;3.55;;
59109;SDS011;44895;47.438;18.978;2023-01-23T02:40:04;9.02;;;4.93;;
59109;SDS011;44895;47.438;18.978;2023-01-23T02:43:12;9.85;;;4.93;;
59109;SDS011;44895;47.438;18.978;2023-01-23T02:46:24;8.25;;;4.43;;
59109;SDS011;44895;47.438;18.978;2023-01-23T02:49:28;10.82;;;3.75;;
59109;SDS011;44895;47.438;18.978;2023-01-23T02:52:32;7.85;;;3.40;;
59109;SDS011;44895;47.438;18.978;2023-01-23T02:55:36;11.27;;;4.75;;
59109;SDS011;44895;47.438;18.978;2023-01-23T02:58:44;8.38;;;3.47;;
59109;SDS011;44895;47.438;18.978;2023-01-23T03:02:06;12.20;;;3.85;;
59109;SDS011;44895;47.438;18.978;2023-01-23T03:05:10;10.30;;;3.72;;
59109;SDS011;44895;47.438;18.978;2023-01-23T03:08:13;8.43;;;3.47;;
59109;SDS011;44895;47.438;18.978;2023-01-23T03:11:17;8.93;;;4.03;;
59109;SDS011;44895;47.438;18.978;2023-01-23T03:14:22;9.48;;;3.65;;
59109;SDS011;44895;47.438;18.978;2023-01-23T03:17:27;7.78;;;3.10;;
59109;SDS011;44895;47.438;18.978;2023-01-23T03:20:38;9.35;;;4.35;;
59109;SDS011;44895;47.438;18.978;2023-01-23T03:23:42;8.02;;;3.55;;
59109;SDS011;44895;47.438;18.978;2023-01-23T03:26:49;8.80;;;3.50;;
59109;SDS011;44895;47.438;18.978;2023-01-23T03:29:54;7.03;;;2.97;;
59109;SDS011;44895;47.438;18.978;2023-01-23T03:33:18;8.35;;;3.55;;
59109;SDS011;44895;47.438;18.978;2023-01-23T03:36:22;9.60;;;4.30;;
59109;SDS011;44895;47.438;18.978;2023-01-23T03:39:26;10.48;;;3.65;;
59109;SDS011;44895;47.438;18.978;2023-01-23T03:42:49;6.57;;;3.00;;
59109;SDS011;44895;47.438;18.978;2023-01-23T03:46:00;6.28;;;2.90;;
59109;SDS011;44895;47.438;18.978;2023-01-23T03:49:05;7.47;;;3.92;;
59109;SDS011;44895;47.438;18.978;2023-01-23T03:52:09;8.18;;;3.25;;
59109;SDS011;44895;47.438;18.978;2023-01-23T03:55:14;8.60;;;3.53;;
59109;SDS011;44895;47.438;18.978;2023-01-23T03:58:19;7.88;;;3.50;;
59109;SDS011;44895;47.438;18.978;2023-01-23T04:01:24;9.60;;;5.65;;
59109;SDS011;44895;47.438;18.978;2023-01-23T04:04:32;5.43;;;2.65;;
59109;SDS011;44895;47.438;18.978;2023-01-23T04:07:37;7.22;;;3.00;;
59109;SDS011;44895;47.438;18.978;2023-01-23T04:10:41;7.78;;;2.58;;
59109;SDS011;44895;47.438;18.978;2023-01-23T04:13:50;6.63;;;2.83;;
59109;SDS011;44895;47.438;18.978;2023-01-23T04:16:55;8.75;;;2.80;;
59109;SDS011;44895;47.438;18.978;2023-01-23T04:19:58;7.15;;;3.47;;
59109;SDS011;44895;47.438;18.978;2023-01-23T04:23:02;8.05;;;3.28;;
59109;SDS011;44895;47.438;18.978;2023-01-23T04:26:07;7.35;;;3.17;;
59109;SDS011;44895;47.438;18.978;2023-01-23T04:29:11;6.88;;;2.85;;
59109;SDS011;44895;47.438;18.978;2023-01-23T04:32:15;5.93;;;2.90;;
59109;SDS011;44895;47.438;18.978;2023-01-23T04:35:22;7.13;;;2.90;;
59109;SDS011;44895;47.438;18.978;2023-01-23T04:38:28;7.47;;;3.03;;
59109;SDS011;44895;47.438;18.978;2023-01-23T04:41:36;8.00;;;3.30;;
59109;SDS011;44895;47.438;18.978;2023-01-23T04:44:51;8.18;;;3.28;;
59109;SDS011;44895;47.438;18.978;2023-01-23T04:48:10;10.25;;;3.47;;
59109;SDS011;44895;47.438;18.978;2023-01-23T04:51:15;7.45;;;2.75;;
59109;SDS011;44895;47.438;18.978;2023-01-23T04:54:19;7.90;;;2.92;;
59109;SDS011;44895;47.438;18.978;2023-01-23T04:57:24;7.25;;;3.13;;
59109;SDS011;44895;47.438;18.978;2023-01-23T05:00:34;6.70;;;3.13;;
59109;SDS011;44895;47.438;18.978;2023-01-23T05:03:39;7.65;;;3.20;;
59109;SDS011;44895;47.438;18.978;2023-01-23T05:06:43;8.85;;;4.45;;
59109;SDS011;44895;47.438;18.978;2023-01-23T05:09:48;7.60;;;2.70;;
59109;SDS011;44895;47.438;18.978;2023-01-23T05:12:52;7.28;;;2.97;;
59109;SDS011;44895;47.438;18.978;2023-01-23T05:15:57;6.40;;;2.60;;
59109;SDS011;44895;47.438;18.978;2023-01-23T05:19:01;6.25;;;2.55;;
59109;SDS011;44895;47.438;18.978;2023-01-23T05:22:07;8.52;;;4.40;;
59109;SDS011;44895;47.438;18.978;2023-01-23T05:25:10;8.57;;;3.50;;
59109;SDS011;44895;47.438;18.978;2023-01-23T05:28:15;8.93;;;3.45;;
59109;SDS011;44895;47.438;18.978;2023-01-23T05:31:24;7.07;;;2.13;;
59109;SDS011;44895;47.438;18.978;2023-01-23T05:34:48;6.75;;;2.50;;
59109;SDS011;44895;47.438;18.978;2023-01-23T05:37:58;7.88;;;3.33;;
59109;SDS011;44895;47.438;18.978;2023-01-23T05:41:02;5.90;;;2.28;;
59109;SDS011;44895;47.438;18.978;2023-01-23T05:44:24;6.38;;;2.22;;
59109;SDS011;44895;47.438;18.978;2023-01-23T05:47:33;6.63;;;3.13;;
59109;SDS011;44895;47.438;18.978;2023-01-23T05:50:36;6.95;;;3.45;;
59109;SDS011;44895;47.438;18.978;2023-01-23T05:53:41;7.15;;;2.47;;
59109;SDS011;44895;47.438;18.978;2023-01-23T05:56:45;8.48;;;3.05;;
59109;SDS011;44895;47.438;18.978;2023-01-23T06:00:07;9.65;;;4.45;;
59109;SDS011;44895;47.438;18.978;2023-01-23T06:03:32;6.80;;;2.53;;
59109;SDS011;44895;47.438;18.978;2023-01-23T06:06:55;11.23;;;4.53;;
59109;SDS011;44895;47.438;18.978;2023-01-23T06:10:00;8.15;;;3.20;;
59109;SDS011;44895;47.438;18.978;2023-01-23T06:13:04;8.05;;;2.60;;
59109;SDS011;44895;47.438;18.978;2023-01-23T06:16:27;7.05;;;2.80;;
59109;SDS011;44895;47.438;18.978;2023-01-23T06:19:31;5.93;;;2.63;;
59109;SDS011;44895;47.438;18.978;2023-01-23T06:22:34;7.47;;;3.38;;
59109;SDS011;44895;47.438;18.978;2023-01-23T06:25:48;9.13;;;4.63;;
59109;SDS011;44895;47.438;18.978;2023-01-23T06:28:51;8.35;;;3.28;;
59109;SDS011;44895;47.438;18.978;2023-01-23T06:31:55;5.78;;;2.70;;
59109;SDS011;44895;47.438;18.978;2023-01-23T06:34:59;6.40;;;3.03;;
59109;SDS011;44895;47.438;18.978;2023-01-23T06:38:08;7.45;;;2.97;;
59109;SDS011;44895;47.438;18.978;2023-01-23T06:41:13;8.57;;;2.53;;
59109;SDS011;44895;47.438;18.978;2023-01-23T06:44:24;7.57;;;3.17;;
59109;SDS011;44895;47.438;18.978;2023-01-23T06:47:29;7.65;;;3.70;;
59109;SDS011;44895;47.438;18.978;2023-01-23T06:50:36;6.80;;;2.90;;
59109;SDS011;44895;47.438;18.978;2023-01-23T06:53:41;6.15;;;2.55;;
59109;SDS011;44895;47.438;18.978;2023-01-23T06:56:45;6.90;;;3.08;;
59109;SDS011;44895;47.438;18.978;2023-01-23T06:59:49;8.65;;;3.67;;
59109;SDS011;44895;47.438;18.978;2023-01-23T07:02:55;6.45;;;2.67;;
59109;SDS011;44895;47.438;18.978;2023-01-23T07:06:04;6.15;;;2.90;;
59109;SDS011;44895;47.438;18.978;2023-01-23T07:09:10;9.07;;;3.17;;
59109;SDS011;44895;47.438;18.978;2023-01-23T07:12:14;7.43;;;3.55;;
59109;SDS011;44895;47.438;18.978;2023-01-23T07:15:18;7.65;;;3.75;;
59109;SDS011;44895;47.438;18.978;2023-01-23T07:18:22;7.72;;;3.33;;
59109;SDS011;44895;47.438;18.978;2023-01-23T07:21:27;18.30;;;4.68;;
59109;SDS011;44895;47.438;18.978;2023-01-23T07:24:31;7.53;;;4.10;;
59109;SDS011;44895;47.438;18.978;2023-01-23T07:27:35;8.63;;;3.28;;
59109;SDS011;44895;47.438;18.978;2023-01-23T07:30:39;7.07;;;3.65;;
59109;SDS011;44895;47.438;18.978;2023-01-23T07:33:43;8.70;;;3.58;;
59109;SDS011;44895;47.438;18.978;2023-01-23T07:36:46;8.68;;;3.42;;
59109;SDS011;44895;47.438;18.978;2023-01-23T07:39:50;7.78;;;4.38;;
59109;SDS011;44895;47.438;18.978;2023-01-23T07:42:55;7.10;;;2.72;;
59109;SDS011;44895;47.438;18.978;2023-01-23T07:45:59;7.95;;;3.45;;
59109;SDS011;44895;47.438;18.978;2023-01-23T07:49:03;8.13;;;3.47;;
59109;SDS011;44895;47.438;18.978;2023-01-23T07:52:07;7.85;;;3.22;;
59109;SDS011;44895;47.438;18.978;2023-01-23T07:55:11;6.63;;;3.42;;
59109;SDS011;44895;47.438;18.978;2023-01-23T07:58:15;7.13;;;3.20;;
59109;SDS011;44895;47.438;18.978;2023-01-23T08:01:18;8.43;;;4.03;;
59109;SDS011;44895;47.438;18.978;2023-01-23T08:04:22;8.25;;;3.72;;
59109;SDS011;44895;47.438;18.978;2023-01-23T08:07:26;8.98;;;4.35;;
59109;SDS011;44895;47.438;18.978;2023-01-23T08:10:30;7.88;;;3.28;;
59109;SDS011;44895;47.438;18.978;2023-01-23T08:13:34;7.70;;;3.63;;
59109;SDS011;44895;47.438;18.978;2023-01-23T08:16:38;8.38;;;4.00;;
59109;SDS011;44895;47.438;18.978;2023-01-23T08:19:42;7.82;;;3.83;;
59109;SDS011;44895;47.438;18.978;2023-01-23T08:22:46;9.77;;;4.35;;
59109;SDS011;44895;47.438;18.978;2023-01-23T08:25:53;7.35;;;3.30;;
59109;SDS011;44895;47.438;18.978;2023-01-23T08:28:58;9.50;;;3.55;;
59109;SDS011;44895;47.438;18.978;2023-01-23T08:32:02;13.48;;;5.55;;
59109;SDS011;44895;47.438;18.978;2023-01-23T08:35:06;8.18;;;4.50;;
59109;SDS011;44895;47.438;18.978;2023-01-23T08:38:10;8.90;;;4.18;;
59109;SDS011;44895;47.438;18.978;2023-01-23T08:41:14;8.23;;;3.92;;
59109;SDS011;44895;47.438;18.978;2023-01-23T08:44:18;9.75;;;4.22;;
59109;SDS011;44895;47.438;18.978;2023-01-23T08:47:21;8.63;;;3.95;;
59109;SDS011;44895;47.438;18.978;2023-01-23T08:50:25;10.20;;;4.75;;
59109;SDS011;44895;47.438;18.978;2023-01-23T08:53:29;7.90;;;3.80;;
59109;SDS011;44895;47.438;18.978;2023-01-23T08:56:34;9.30;;;4.00;;
59109;SDS011;44895;47.438;18.978;2023-01-23T08:59:37;8.95;;;4.57;;
59109;SDS011;44895;47.438;18.978;2023-01-23T09:02:41;13.10;;;4.43;;
59109;SDS011;44895;47.438;18.978;2023-01-23T09:05:45;8.13;;;4.57;;
59109;SDS011;44895;47.438;18.978;2023-01-23T09:08:49;9.23;;;3.92;;
59109;SDS011;44895;47.438;18.978;2023-01-23T09:11:53;10.95;;;4.50;;
59109;SDS011;44895;47.438;18.978;2023-01-23T09:14:57;10.07;;;4.32;;
59109;SDS011;44895;47.438;18.978;2023-01-23T09:18:02;9.75;;;5.20;;
59109;SDS011;44895;47.438;18.978;2023-01-23T09:21:06;9.32;;;4.80;;
59109;SDS011;44895;47.438;18.978;2023-01-23T09:24:11;11.02;;;5.40;;
59109;SDS011;44895;47.438;18.978;2023-01-23T09:27:15;9.75;;;4.93;;
59109;SDS011;44895;47.438;18.978;2023-01-23T09:30:19;13.00;;;4.38;;
59109;SDS011;44895;47.438;18.978;2023-01-23T09:33:22;10.57;;;5.47;;
59109;SDS011;44895;47.438;18.978;2023-01-23T09:36:29;10.27;;;5.00;;
59109;SDS011;44895;47.438;18.978;2023-01-23T09:39:33;10.02;;;5.25;;
59109;SDS011;44895;47.438;18.978;2023-01-23T09:42:37;11.90;;;5.75;;
59109;SDS011;44895;47.438;18.978;2023-01-23T09:45:42;10.57;;;5.55;;
59109;SDS011;44895;47.438;18.978;2023-01-23T09:48:58;9.27;;;5.32;;
59109;SDS011;44895;47.438;18.978;2023-01-23T09:52:12;13.00;;;5.85;;
59109;SDS011;44895;47.438;18.978;2023-01-23T09:59:05;9.52;;;5.28;;
59109;SDS011;44895;47.438;18.978;2023-01-23T10:02:25;12.18;;;4.25;;
59109;SDS011;44895;47.438;18.978;2023-01-23T10:05:39;10.02;;;5.18;;
59109;SDS011;44895;47.438;18.978;2023-01-23T10:08:57;14.60;;;6.63;;
59109;SDS011;44895;47.438;18.978;2023-01-23T10:26:23;12.50;;;5.20;;
59109;SDS011;44895;47.438;18.978;2023-01-23T10:29:36;9.10;;;5.07;;
59109;SDS011;44895;47.438;18.978;2023-01-23T10:32:55;13.52;;;5.50;;
59109;SDS011;44895;47.438;18.978;2023-01-23T10:36:02;9.15;;;4.68;;
59109;SDS011;44895;47.438;18.978;2023-01-23T10:39:48;9.25;;;4.25;;
59109;SDS011;44895;47.438;18.978;2023-01-23T10:43:21;12.77;;;4.33;;
59109;SDS011;44895;47.438;18.978;2023-01-23T10:49:34;9.30;;;4.50;;
59109;SDS011;44895;47.438;18.978;2023-01-23T10:52:43;11.38;;;4.45;;
59109;SDS011;44895;47.438;18.978;2023-01-23T10:55:48;11.35;;;4.75;;
59109;SDS011;44895;47.438;18.978;2023-01-23T10:58:57;12.35;;;5.70;;
59109;SDS011;44895;47.438;18.978;2023-01-23T11:09:17;12.02;;;3.70;;
59109;SDS011;44895;47.438;18.978;2023-01-23T11:12:22;8.00;;;3.20;;
59109;SDS011;44895;47.438;18.978;2023-01-23T11:15:30;8.00;;;4.38;;
59109;SDS011;44895;47.438;18.978;2023-01-23T11:18:38;7.07;;;3.38;;
59109;SDS011;44895;47.438;18.978;2023-01-23T11:24:58;8.45;;;3.83;;
59109;SDS011;44895;47.438;18.978;2023-01-23T11:28:15;7.40;;;3.78;;
59109;SDS011;44895;47.438;18.978;2023-01-23T11:31:33;8.02;;;3.88;;
59109;SDS011;44895;47.438;18.978;2023-01-23T11:34:37;6.80;;;3.70;;
59109;SDS011;44895;47.438;18.978;2023-01-23T11:37:48;7.80;;;5.15;;
59109;SDS011;44895;47.438;18.978;2023-01-23T11:40:53;7.88;;;4.63;;
59109;SDS011;44895;47.438;18.978;2023-01-23T11:43:57;8.43;;;4.32;;
59109;SDS011;44895;47.438;18.978;2023-01-23T11:54:05;8.57;;;4.07;;
59109;SDS011;44895;47.438;18.978;2023-01-23T12:01:10;9.93;;;3.53;;
59109;SDS011;44895;47.438;18.978;2023-01-23T12:07:32;7.22;;;2.88;;
59109;SDS011;44895;47.438;18.978;2023-01-23T12:27:31;5.65;;;2.58;;
59109;SDS011;44895;47.438;18.978;2023-01-23T12:37:12;9.18;;;3.88;;
59109;SDS011;44895;47.438;18.978;2023-01-23T12:40:43;9.15;;;3.60;;
59109;SDS011;44895;47.438;18.978;2023-01-23T12:47:33;32.25;;;4.70;;
59109;SDS011;44895;47.438;18.978;2023-01-23T12:53:54;7.72;;;3.50;;
59109;SDS011;44895;47.438;18.978;2023-01-23T12:57:01;7.47;;;3.42;;
59109;SDS011;44895;47.438;18.978;2023-01-23T13:03:43;6.65;;;3.50;;
59109;SDS011;44895;47.438;18.978;2023-01-23T13:17:29;8.48;;;3.40;;
59109;SDS011;44895;47.438;18.978;2023-01-23T13:20:57;6.68;;;3.15;;
59109;SDS011;44895;47.438;18.978;2023-01-23T13:24:23;11.90;;;4.22;;
59109;SDS011;44895;47.438;18.978;2023-01-23T13:30:57;9.05;;;4.15;;
59109;SDS011;44895;47.438;18.978;2023-01-23T13:40:41;7.07;;;3.53;;
59109;SDS011;44895;47.438;18.978;2023-01-23T13:47:41;8.93;;;4.07;;
59109;SDS011;44895;47.438;18.978;2023-01-23T13:51:17;6.90;;;3.23;;
59109;SDS011;44895;47.438;18.978;2023-01-23T13:54:26;7.50;;;2.92;;
59109;SDS011;44895;47.438;18.978;2023-01-23T13:57:51;8.07;;;3.67;;
59109;SDS011;44895;47.438;18.978;2023-01-23T14:04:29;6.93;;;3.08;;
59109;SDS011;44895;47.438;18.978;2023-01-23T14:07:58;8.75;;;3.10;;
59109;SDS011;44895;47.438;18.978;2023-01-23T14:11:12;8.25;;;3.83;;
59109;SDS011;44895;47.438;18.978;2023-01-23T14:14:17;8.55;;;3.63;;
59109;SDS011;44895;47.438;18.978;2023-01-23T14:17:39;7.53;;;3.13;;
59109;SDS011;44895;47.438;18.978;2023-01-23T14:20:42;8.13;;;3.72;;
59109;SDS011;44895;47.438;18.978;2023-01-23T14:23:48;11.25;;;5.35;;
59109;SDS011;44895;47.438;18.978;2023-01-23T14:26:59;8.43;;;3.65;;
59109;SDS011;44895;47.438;18.978;2023-01-23T14:33:20;7.95;;;3.83;;
59109;SDS011;44895;47.438;18.978;2023-01-23T14:36:25;13.02;;;3.35;;
59109;SDS011;44895;47.438;18.978;2023-01-23T14:39:29;7.30;;;3.05;;
59109;SDS011;44895;47.438;18.978;2023-01-23T14:42:35;9.50;;;2.95;;
59109;SDS011;44895;47.438;18.978;2023-01-23T14:45:39;9.57;;;3.40;;
59109;SDS011;44895;47.438;18.978;2023-01-23T14:48:50;8.13;;;3.70;;
59109;SDS011;44895;47.438;18.978;2023-01-23T14:51:58;6.13;;;2.92;;
59109;SDS011;44895;47.438;18.978;2023-01-23T14:55:17;9.55;;;4.00;;
59109;SDS011;44895;47.438;18.978;2023-01-23T14:58:23;7.93;;;3.90;;
59109;SDS011;44895;47.438;18.978;2023-01-23T15:01:31;8.75;;;3.58;;
59109;SDS011;44895;47.438;18.978;2023-01-23T15:04:35;7.88;;;4.38;;
59109;SDS011;44895;47.438;18.978;2023-01-23T15:10:48;13.57;;;3.47;;
59109;SDS011;44895;47.438;18.978;2023-01-23T15:13:54;12.30;;;4.70;;
59109;SDS011;44895;47.438;18.978;2023-01-23T15:17:04;7.00;;;2.90;;
59109;SDS011;44895;47.438;18.978;2023-01-23T15:23:30;9.55;;;4.47;;
59109;SDS011;44895;47.438;18.978;2023-01-23T15:26:35;8.75;;;3.20;;
59109;SDS011;44895;47.438;18.978;2023-01-23T15:29:40;8.30;;;3.42;;
59109;SDS011;44895;47.438;18.978;2023-01-23T15:32:47;9.63;;;4.05;;
59109;SDS011;44895;47.438;18.978;2023-01-23T15:35:51;9.77;;;3.78;;
59109;SDS011;44895;47.438;18.978;2023-01-23T15:39:03;9.27;;;3.70;;
59109;SDS011;44895;47.438;18.978;2023-01-23T15:45:16;15.15;;;5.40;;
59109;SDS011;44895;47.438;18.978;2023-01-23T15:48:20;8.27;;;4.40;;
59109;SDS011;44895;47.438;18.978;2023-01-23T15:51:24;9.45;;;3.95;;
59109;SDS011;44895;47.438;18.978;2023-01-23T15:54:34;7.40;;;3.25;;
59109;SDS011;44895;47.438;18.978;2023-01-23T15:57:40;8.40;;;3.78;;
59109;SDS011;44895;47.438;18.978;2023-01-23T16:00:45;8.52;;;3.67;;
59109;SDS011;44895;47.438;18.978;2023-01-23T16:03:49;11.93;;;4.18;;
59109;SDS011;44895;47.438;18.978;2023-01-23T16:06:52;12.35;;;4.05;;
59109;SDS011;44895;47.438;18.978;2023-01-23T16:09:57;10.68;;;4.13;;
59109;SDS011;44895;47.438;18.978;2023-01-23T16:13:01;9.07;;;4.40;;
59109;SDS011;44895;47.438;18.978;2023-01-23T16:16:10;9.13;;;4.55;;
59109;SDS011;44895;47.438;18.978;2023-01-23T16:19:18;12.48;;;6.15;;
59109;SDS011;44895;47.438;18.978;2023-01-23T16:22:23;6.78;;;3.58;;
59109;SDS011;44895;47.438;18.978;2023-01-23T16:25:30;10.55;;;4.85;;
59109;SDS011;44895;47.438;18.978;2023-01-23T16:28:35;10.05;;;4.85;;
59109;SDS011;44895;47.438;18.978;2023-01-23T16:31:39;9.18;;;4.40;;
59109;SDS011;44895;47.438;18.978;2023-01-23T16:34:43;12.00;;;4.22;;
59109;SDS011;44895;47.438;18.978;2023-01-23T16:37:48;12.77;;;4.93;;
59109;SDS011;44895;47.438;18.978;2023-01-23T16:40:53;9.48;;;5.57;;
59109;SDS011;44895;47.438;18.978;2023-01-23T16:43:59;9.20;;;4.05;;
59109;SDS011;44895;47.438;18.978;2023-01-23T16:47:03;10.35;;;3.80;;
59109;SDS011;44895;47.438;18.978;2023-01-23T16:50:08;9.43;;;4.53;;
59109;SDS011;44895;47.438;18.978;2023-01-23T16:53:26;8.38;;;4.15;;
59109;SDS011;44895;47.438;18.978;2023-01-23T16:56:36;8.77;;;4.53;;
59109;SDS011;44895;47.438;18.978;2023-01-23T16:59:43;11.15;;;4.43;;
59109;SDS011;44895;47.438;18.978;2023-01-23T17:02:55;9.85;;;4.10;;
59109;SDS011;44895;47.438;18.978;2023-01-23T17:06:01;9.40;;;4.70;;
59109;SDS011;44895;47.438;18.978;2023-01-23T17:09:06;14.73;;;5.50;;
59109;SDS011;44895;47.438;18.978;2023-01-23T17:12:17;8.38;;;4.35;;
59109;SDS011;44895;47.438;18.978;2023-01-23T17:15:26;9.20;;;4.43;;
59109;SDS011;44895;47.438;18.978;2023-01-23T17:18:32;12.50;;;5.15;;
59109;SDS011;44895;47.438;18.978;2023-01-23T17:21:39;13.85;;;5.28;;
59109;SDS011;44895;47.438;18.978;2023-01-23T17:24:42;10.48;;;5.22;;
59109;SDS011;44895;47.438;18.978;2023-01-23T17:27:48;10.75;;;5.30;;
59109;SDS011;44895;47.438;18.978;2023-01-23T17:30:53;11.35;;;5.88;;
59109;SDS011;44895;47.438;18.978;2023-01-23T17:33:57;10.85;;;5.13;;
59109;SDS011;44895;47.438;18.978;2023-01-23T17:37:01;10.30;;;5.13;;
59109;SDS011;44895;47.438;18.978;2023-01-23T17:40:07;10.68;;;5.65;;
59109;SDS011;44895;47.438;18.978;2023-01-23T17:43:17;11.88;;;5.93;;
59109;SDS011;44895;47.438;18.978;2023-01-23T17:46:24;11.20;;;5.82;;
59109;SDS011;44895;47.438;18.978;2023-01-23T17:49:33;17.10;;;7.55;;
59109;SDS011;44895;47.438;18.978;2023-01-23T17:52:37;11.98;;;6.30;;
59109;SDS011;44895;47.438;18.978;2023-01-23T17:55:42;11.90;;;6.28;;
59109;SDS011;44895;47.438;18.978;2023-01-23T17:58:49;11.93;;;5.57;;
59109;SDS011;44895;47.438;18.978;2023-01-23T18:01:56;10.05;;;6.00;;
59109;SDS011;44895;47.438;18.978;2023-01-23T18:05:00;16.73;;;7.03;;
59109;SDS011;44895;47.438;18.978;2023-01-23T18:08:05;13.10;;;6.38;;
59109;SDS011;44895;47.438;18.978;2023-01-23T18:11:18;12.15;;;7.65;;
59109;SDS011;44895;47.438;18.978;2023-01-23T18:17:43;14.90;;;6.38;;
59109;SDS011;44895;47.438;18.978;2023-01-23T18:20:56;10.63;;;6.28;;
59109;SDS011;44895;47.438;18.978;2023-01-23T18:24:02;10.82;;;5.95;;
59109;SDS011;44895;47.438;18.978;2023-01-23T18:27:40;11.77;;;6.47;;
59109;SDS011;44895;47.438;18.978;2023-01-23T18:30:58;11.77;;;6.13;;
59109;SDS011;44895;47.438;18.978;2023-01-23T18:34:17;11.15;;;6.70;;
59109;SDS011;44895;47.438;18.978;2023-01-23T18:44:24;12.00;;;4.97;;
59109;SDS011;44895;47.438;18.978;2023-01-23T18:47:30;11.82;;;4.82;;
59109;SDS011;44895;47.438;18.978;2023-01-23T18:50:34;9.32;;;4.80;;
59109;SDS011;44895;47.438;18.978;2023-01-23T18:57:05;12.00;;;5.60;;
59109;SDS011;44895;47.438;18.978;2023-01-23T19:00:49;9.55;;;5.25;;
59109;SDS011;44895;47.438;18.978;2023-01-23T19:04:07;10.60;;;6.50;;
59109;SDS011;44895;47.438;18.978;2023-01-23T19:07:16;11.15;;;7.07;;
59109;SDS011;44895;47.438;18.978;2023-01-23T19:10:25;10.90;;;5.10;;
59109;SDS011;44895;47.438;18.978;2023-01-23T19:13:43;10.25;;;6.97;;
59109;SDS011;44895;47.438;18.978;2023-01-23T19:17:03;10.85;;;5.53;;
59109;SDS011;44895;47.438;18.978;2023-01-23T19:20:21;11.50;;;7.60;;
59109;SDS011;44895;47.438;18.978;2023-01-23T19:24:06;11.65;;;5.82;;
59109;SDS011;44895;47.438;18.978;2023-01-23T19:27:12;11.38;;;6.40;;
59109;SDS011;44895;47.438;18.978;2023-01-23T19:30:25;11.30;;;5.63;;
59109;SDS011;44895;47.438;18.978;2023-01-23T19:33:30;12.30;;;5.75;;
59109;SDS011;44895;47.438;18.978;2023-01-23T19:36:35;16.88;;;6.90;;
59109;SDS011;44895;47.438;18.978;2023-01-23T19:39:39;11.73;;;5.53;;
59109;SDS011;44895;47.438;18.978;2023-01-23T19:42:44;12.40;;;5.03;;
59109;SDS011;44895;47.438;18.978;2023-01-23T19:45:49;8.95;;;4.88;;
59109;SDS011;44895;47.438;18.978;2023-01-23T19:48:53;10.40;;;6.70;;
59109;SDS011;44895;47.438;18.978;2023-01-23T19:52:00;10.50;;;5.18;;
59109;SDS011;44895;47.438;18.978;2023-01-23T19:55:06;9.88;;;5.47;;
59109;SDS011;44895;47.438;18.978;2023-01-23T19:58:15;10.05;;;5.75;;
59109;SDS011;44895;47.438;18.978;2023-01-23T20:04:43;10.32;;;4.82;;
59109;SDS011;44895;47.438;18.978;2023-01-23T20:07:47;12.02;;;6.72;;
59109;SDS011;44895;47.438;18.978;2023-01-23T20:10:53;10.18;;;5.63;;
59109;SDS011;44895;47.438;18.978;2023-01-23T20:13:59;10.65;;;5.07;;
59109;SDS011;44895;47.438;18.978;2023-01-23T20:17:03;9.07;;;5.80;;
59109;SDS011;44895;47.438;18.978;2023-01-23T20:20:08;9.57;;;5.88;;
59109;SDS011;44895;47.438;18.978;2023-01-23T20:23:13;13.15;;;4.60;;
59109;SDS011;44895;47.438;18.978;2023-01-23T20:26:19;12.07;;;6.15;;
59109;SDS011;44895;47.438;18.978;2023-01-23T20:29:24;9.05;;;4.60;;
59109;SDS011;44895;47.438;18.978;2023-01-23T20:32:32;10.52;;;5.30;;
59109;SDS011;44895;47.438;18.978;2023-01-23T20:38:41;13.43;;;5.55;;
59109;SDS011;44895;47.438;18.978;2023-01-23T20:41:46;10.80;;;4.70;;
59109;SDS011;44895;47.438;18.978;2023-01-23T20:44:51;11.80;;;6.15;;
59109;SDS011;44895;47.438;18.978;2023-01-23T20:47:55;13.35;;;6.10;;